createdAt,value
2022-12-20T00:01:56.607Z,14.68
2022-12-20T00:04:25.085Z,14.73
2022-12-20T00:06:53.507Z,14.76
2022-12-20T00:09:24.763Z,14.79
2022-12-20T00:11:53.198Z,14.84
2022-12-20T00:14:21.614Z,14.88
2022-12-20T00:16:50.011Z,14.93
2022-12-20T00:19:18.366Z,14.97
2022-12-20T00:21:46.711Z,15.01
2022-12-20T00:24:18.137Z,15.05
2022-12-20T00:26:49.128Z,15.09
2022-12-20T00:29:17.702Z,15.14
2022-12-20T00:31:46.225Z,15.18
2022-12-20T00:34:14.792Z,15.23
2022-12-20T00:36:43.173Z,15.31
2022-12-20T00:39:12.153Z,15.37
2022-12-20T00:41:40.568Z,15.44
2022-12-20T00:44:08.915Z,15.49
2022-12-20T00:46:37.585Z,15.56
2022-12-20T00:49:06.001Z,15.61
2022-12-20T00:51:34.473Z,15.68
2022-12-20T00:54:02.875Z,15.74
2022-12-20T00:56:31.280Z,15.82
2022-12-20T00:59:01.116Z,15.91
2022-12-20T01:01:35.679Z,16.00
2022-12-20T01:04:05.136Z,16.06
2022-12-20T01:06:33.951Z,16.16
2022-12-20T01:09:02.771Z,16.21
2022-12-20T01:11:34.025Z,16.29
2022-12-20T01:14:06.068Z,16.35
2022-12-20T01:16:44.633Z,16.43
2022-12-20T01:19:15.932Z,16.50
2022-12-20T01:21:47.532Z,16.57
2022-12-20T01:24:21.030Z,16.66
2022-12-20T01:26:49.815Z,16.76
2022-12-20T01:29:19.336Z,16.87
2022-12-20T01:31:47.707Z,16.94
2022-12-20T01:34:16.347Z,17.01
2022-12-20T01:36:45.070Z,17.13
2022-12-20T01:39:16.730Z,17.20
2022-12-20T01:41:46.665Z,17.27
2022-12-20T01:44:18.147Z,17.35
2022-12-20T01:46:52.600Z,17.44
2022-12-20T01:49:49.340Z,17.53
2022-12-20T01:52:24.301Z,17.62
2022-12-20T01:55:03.746Z,17.71
2022-12-20T01:57:52.804Z,17.79
2022-12-20T02:00:21.566Z,17.86
2022-12-20T02:02:51.428Z,17.92
2022-12-20T02:05:22.441Z,17.99
2022-12-20T02:07:55.403Z,18.07
2022-12-20T02:10:28.417Z,18.13
2022-12-20T02:13:08.939Z,18.24
2022-12-20T02:15:56.713Z,18.31
2022-12-20T02:18:29.119Z,18.40
2022-12-20T02:21:24.324Z,18.50
2022-12-20T02:24:11.133Z,18.59
2022-12-20T02:27:27.374Z,18.67
2022-12-20T02:30:08.827Z,18.78
2022-12-20T02:32:51.992Z,18.87
2022-12-20T02:35:35.540Z,18.95
2022-12-20T02:38:26.364Z,19.04
2022-12-20T02:41:10.595Z,19.14
2022-12-20T02:44:01.251Z,19.23
2022-12-20T02:46:30.403Z,19.34
2022-12-20T02:49:04.649Z,19.46
2022-12-20T02:51:34.490Z,19.57
2022-12-20T02:54:03.739Z,19.65
2022-12-20T02:56:48.359Z,19.77
2022-12-20T02:59:22.587Z,19.87
2022-12-20T03:01:56.834Z,19.99
2022-12-20T03:04:29.209Z,20.09
2022-12-20T03:07:03.778Z,20.18
2022-12-20T03:09:33.992Z,20.26
2022-12-20T03:12:02.566Z,20.33
2022-12-20T03:14:31.031Z,20.43
2022-12-20T03:16:59.692Z,20.53
2022-12-20T03:19:28.232Z,20.62
2022-12-20T03:21:56.739Z,20.71
2022-12-20T03:24:25.186Z,20.78
2022-12-20T03:26:53.591Z,20.86
2022-12-20T03:29:21.943Z,20.93
2022-12-20T03:31:50.310Z,21.01
2022-12-20T03:34:18.697Z,21.07
2022-12-20T03:36:47.042Z,21.13
2022-12-20T03:39:15.398Z,21.20
2022-12-20T03:41:43.747Z,21.32
2022-12-20T03:44:12.098Z,21.40
2022-12-20T03:46:41.597Z,21.47
2022-12-20T03:49:09.973Z,21.54
2022-12-20T03:51:38.330Z,21.64
2022-12-20T03:54:06.701Z,21.73
2022-12-20T03:56:35.067Z,21.85
2022-12-20T03:59:03.630Z,21.96
2022-12-20T04:01:32.177Z,22.03
2022-12-20T04:04:00.635Z,22.12
2022-12-20T04:06:29.081Z,22.22
2022-12-20T04:08:57.559Z,22.28
2022-12-20T04:11:25.935Z,22.36
2022-12-20T04:13:55.624Z,22.42
2022-12-20T04:16:30.289Z,22.47
2022-12-20T04:18:58.747Z,22.52
2022-12-20T04:21:32.478Z,22.62
2022-12-20T04:24:02.895Z,22.66
2022-12-20T04:26:31.736Z,22.72
2022-12-20T04:29:00.257Z,22.78
2022-12-20T04:31:28.749Z,22.87
2022-12-20T04:33:57.200Z,22.94
2022-12-20T04:36:25.982Z,23.02
2022-12-20T04:38:54.978Z,23.08
2022-12-20T04:41:23.410Z,23.13
2022-12-20T04:43:57.947Z,23.16
2022-12-20T04:46:27.255Z,23.23
2022-12-20T04:48:57.702Z,23.31
2022-12-20T04:51:27.086Z,23.36
2022-12-20T04:53:56.351Z,23.46
2022-12-20T04:56:28.800Z,23.52
2022-12-20T04:58:59.604Z,23.57
2022-12-20T05:01:28.435Z,23.61
2022-12-20T05:03:57.188Z,23.65
2022-12-20T05:06:25.824Z,23.71
2022-12-20T05:08:55.948Z,23.76
2022-12-20T05:11:24.294Z,23.80
2022-12-20T05:13:52.657Z,23.82
2022-12-20T05:16:21.110Z,23.85
2022-12-20T05:18:49.882Z,23.89
2022-12-20T05:21:37.130Z,23.93
2022-12-20T05:24:24.220Z,24.01
2022-12-20T05:26:52.632Z,24.08
2022-12-20T05:29:21.129Z,24.12
2022-12-20T05:31:49.668Z,24.15
2022-12-20T05:34:18.539Z,24.20
2022-12-20T05:36:47.054Z,24.24
2022-12-20T05:39:15.597Z,24.25
2022-12-20T05:41:43.960Z,24.30
2022-12-20T05:44:12.305Z,24.32
2022-12-20T05:46:40.759Z,24.35
2022-12-20T05:49:09.215Z,24.37
2022-12-20T05:51:37.612Z,24.41
2022-12-20T05:54:06.671Z,24.43
2022-12-20T05:56:35.006Z,24.52
2022-12-20T05:59:03.365Z,24.55
2022-12-20T06:01:32.035Z,24.57
2022-12-20T06:04:00.610Z,24.59
2022-12-20T06:06:29.093Z,24.61
2022-12-20T06:08:57.432Z,24.63
2022-12-20T06:11:29.867Z,24.65
2022-12-20T06:13:58.849Z,24.68
2022-12-20T06:16:27.289Z,24.72
2022-12-20T06:18:55.998Z,24.79
2022-12-20T06:21:24.661Z,24.82
2022-12-20T06:23:52.992Z,24.84
2022-12-20T06:26:21.720Z,24.86
2022-12-20T06:28:53.521Z,24.87
2022-12-20T06:31:22.231Z,24.87
2022-12-20T06:33:50.637Z,24.89
2022-12-20T06:36:18.996Z,24.89
2022-12-20T06:38:47.369Z,24.95
2022-12-20T06:41:15.720Z,24.96
2022-12-20T06:43:44.085Z,25.00
2022-12-20T06:46:12.572Z,25.02
2022-12-20T06:48:41.088Z,25.03
2022-12-20T06:51:09.535Z,25.09
2022-12-20T06:53:38.019Z,25.09
2022-12-20T06:56:06.773Z,25.09
2022-12-20T06:58:35.117Z,25.07
2022-12-20T07:01:03.563Z,25.07
2022-12-20T07:03:32.042Z,25.07
2022-12-20T07:06:00.701Z,25.09
2022-12-20T07:08:29.587Z,25.10
2022-12-20T07:10:58.096Z,25.13
2022-12-20T07:13:26.472Z,25.16
2022-12-20T07:16:03.136Z,25.18
2022-12-20T07:18:31.776Z,25.17
2022-12-20T07:21:02.698Z,25.18
2022-12-20T07:23:31.490Z,25.20
2022-12-20T07:26:02.034Z,25.18
2022-12-20T07:28:31.186Z,25.19
2022-12-20T07:31:03.608Z,25.22
2022-12-20T07:33:32.764Z,25.21
2022-12-20T07:36:13.302Z,25.23
2022-12-20T07:38:41.759Z,25.24
2022-12-20T07:41:15.285Z,25.27
2022-12-20T07:43:44.203Z,25.31
2022-12-20T07:46:15.341Z,25.33
2022-12-20T07:48:45.523Z,25.34
2022-12-20T07:51:19.105Z,25.34
2022-12-20T07:53:52.785Z,25.36
2022-12-20T07:56:23.552Z,25.37
2022-12-20T07:58:59.456Z,25.39
2022-12-20T08:01:31.463Z,25.43
2022-12-20T08:04:13.822Z,25.45
2022-12-20T08:06:43.808Z,25.47
2022-12-20T08:09:14.453Z,25.49
2022-12-20T08:11:48.355Z,25.52
2022-12-20T08:14:18.691Z,25.55
2022-12-20T08:16:47.562Z,25.55
2022-12-20T08:19:16.017Z,25.56
2022-12-20T08:21:44.359Z,25.58
2022-12-20T08:24:12.820Z,25.58
2022-12-20T08:26:42.695Z,25.57
2022-12-20T08:29:11.625Z,25.56
2022-12-20T08:31:47.636Z,25.55
2022-12-20T08:34:18.581Z,25.57
2022-12-20T08:36:47.034Z,25.60
2022-12-20T08:39:15.553Z,25.61
2022-12-20T08:41:44.042Z,25.61
2022-12-20T08:44:12.458Z,25.61
2022-12-20T08:46:40.972Z,25.61
2022-12-20T08:49:09.634Z,25.61
2022-12-20T08:51:38.043Z,25.63
2022-12-20T08:54:06.597Z,25.61
2022-12-20T08:56:35.130Z,25.60
2022-12-20T08:59:03.488Z,25.59
2022-12-20T09:01:34.655Z,25.60
2022-12-20T09:04:03.325Z,25.60
2022-12-20T09:06:32.363Z,25.61
2022-12-20T09:09:01.559Z,25.61
2022-12-20T09:11:30.087Z,25.56
2022-12-20T09:14:00.134Z,25.56
2022-12-20T09:16:32.914Z,25.55
2022-12-20T09:19:05.918Z,25.54
2022-12-20T09:21:36.090Z,25.51
2022-12-20T09:24:04.661Z,25.47
2022-12-20T09:26:33.475Z,25.44
2022-12-20T09:29:03.024Z,25.41
2022-12-20T09:31:31.484Z,25.38
2022-12-20T09:34:01.419Z,25.34
2022-12-20T09:36:31.450Z,25.30
2022-12-20T09:38:59.877Z,25.28
2022-12-20T09:41:30.876Z,25.25
2022-12-20T09:44:01.335Z,25.25
2022-12-20T09:46:29.897Z,25.26
2022-12-20T09:48:59.192Z,25.21
2022-12-20T09:51:42.376Z,25.19
2022-12-20T09:54:53.577Z,25.18
2022-12-20T09:57:46.139Z,25.13
2022-12-20T10:00:16.892Z,25.06
2022-12-20T10:03:09.389Z,25.02
2022-12-20T10:06:00.470Z,24.96
2022-12-20T10:08:58.265Z,24.91
2022-12-20T10:11:49.899Z,24.84
2022-12-20T10:14:47.366Z,24.80
2022-12-20T10:17:39.728Z,24.74
2022-12-20T10:20:29.539Z,24.66
2022-12-20T10:23:04.485Z,24.59
2022-12-20T10:25:35.001Z,24.54
2022-12-20T10:28:16.174Z,24.48
2022-12-20T10:30:45.127Z,24.41
2022-12-20T10:33:21.986Z,24.34
2022-12-20T10:35:51.914Z,24.25
2022-12-20T10:38:21.712Z,24.19
2022-12-20T10:41:20.706Z,24.11
2022-12-20T10:44:03.864Z,24.03
2022-12-20T10:46:52.605Z,23.96
2022-12-20T10:49:24.294Z,23.88
2022-12-20T10:51:58.475Z,23.82
2022-12-20T10:54:43.106Z,23.73
2022-12-20T10:57:25.519Z,23.67
2022-12-20T11:00:06.583Z,23.60
2022-12-20T11:02:42.403Z,23.53
2022-12-20T11:05:15.398Z,23.46
2022-12-20T11:08:34.063Z,23.37
2022-12-20T11:11:32.140Z,23.24
2022-12-20T11:14:15.920Z,23.10
2022-12-20T11:16:48.741Z,22.96
2022-12-20T11:19:35.382Z,22.86
2022-12-20T11:22:06.895Z,22.77
2022-12-20T11:24:51.067Z,22.69
2022-12-20T11:27:33.495Z,22.62
2022-12-20T11:30:22.581Z,22.53
2022-12-20T11:33:13.392Z,22.46
2022-12-20T11:35:48.282Z,22.37
2022-12-20T11:38:26.762Z,22.27
2022-12-20T11:41:21.999Z,22.15
2022-12-20T11:44:27.740Z,22.03
2022-12-20T11:46:56.423Z,21.90
2022-12-20T11:49:33.587Z,21.80
2022-12-20T11:52:12.651Z,21.70
2022-12-20T11:54:56.084Z,21.59
2022-12-20T11:57:54.943Z,21.50
2022-12-20T12:00:23.691Z,21.42
2022-12-20T12:03:03.164Z,21.33
2022-12-20T12:05:37.524Z,21.26
2022-12-20T12:08:18.152Z,21.19
2022-12-20T12:10:59.732Z,21.12
2022-12-20T12:13:31.717Z,21.04
2022-12-20T12:16:06.837Z,20.97
2022-12-20T12:18:37.096Z,20.91
2022-12-20T12:21:12.045Z,20.86
2022-12-20T12:23:46.092Z,20.81
2022-12-20T12:26:22.203Z,20.77
2022-12-20T12:29:01.861Z,20.74
2022-12-20T12:31:44.001Z,20.68
2022-12-20T12:34:44.509Z,20.64
2022-12-20T12:37:36.821Z,20.58
2022-12-20T12:40:17.832Z,20.53
2022-12-20T12:43:04.462Z,20.48
2022-12-20T12:45:49.967Z,20.42
2022-12-20T12:48:21.476Z,20.36
2022-12-20T12:50:55.032Z,20.32
2022-12-20T12:53:38.199Z,20.31
2022-12-20T12:56:47.028Z,20.27
2022-12-20T12:59:25.102Z,20.24
2022-12-20T13:01:57.951Z,20.20
2022-12-20T13:04:49.320Z,20.15
2022-12-20T13:07:48.574Z,20.11
2022-12-20T13:10:16.797Z,20.06
2022-12-20T13:12:56.701Z,20.00
2022-12-20T13:15:24.942Z,19.96
2022-12-20T13:17:59.281Z,19.91
2022-12-20T13:20:30.459Z,19.86
2022-12-20T13:23:13.913Z,19.82
2022-12-20T13:25:43.751Z,19.78
2022-12-20T13:28:24.417Z,19.74
2022-12-20T13:31:05.760Z,19.70
2022-12-20T13:33:44.300Z,19.64
2022-12-20T13:36:12.590Z,19.60
2022-12-20T13:38:49.759Z,19.54
2022-12-20T13:41:35.293Z,19.50
2022-12-20T13:44:36.148Z,19.44
2022-12-20T13:47:58.327Z,19.39
2022-12-20T13:50:41.676Z,19.34
2022-12-20T13:53:23.125Z,19.30
2022-12-20T13:55:51.675Z,19.27
2022-12-20T13:58:31.547Z,19.23
2022-12-20T14:01:14.304Z,19.21
2022-12-20T14:03:47.290Z,19.18
2022-12-20T14:06:22.933Z,19.14
2022-12-20T14:08:54.650Z,19.11
2022-12-20T14:11:27.889Z,19.07
2022-12-20T14:14:02.327Z,19.05
2022-12-20T14:16:33.160Z,19.02
2022-12-20T14:19:07.578Z,19.00
2022-12-20T14:21:43.861Z,18.98
2022-12-20T14:24:22.892Z,18.96
2022-12-20T14:26:54.748Z,18.92
2022-12-20T14:29:31.380Z,18.90
2022-12-20T14:31:59.896Z,18.86
2022-12-20T14:34:36.602Z,18.83
2022-12-20T14:37:32.316Z,18.81
2022-12-20T14:40:06.685Z,18.81
2022-12-20T14:42:40.600Z,18.80
2022-12-20T14:45:11.924Z,18.78
2022-12-20T14:47:50.034Z,18.75
2022-12-20T14:50:35.042Z,18.73
2022-12-20T14:53:04.170Z,18.71
2022-12-20T14:55:38.729Z,18.70
2022-12-20T14:58:27.458Z,18.66
2022-12-20T15:01:17.350Z,18.64
2022-12-20T15:04:00.222Z,18.62
2022-12-20T15:06:41.024Z,18.60
2022-12-20T15:09:09.783Z,18.57
2022-12-20T15:11:39.536Z,18.53
2022-12-20T15:14:22.712Z,18.49
2022-12-20T15:16:51.237Z,18.45
2022-12-20T15:19:19.531Z,18.42
2022-12-20T15:21:48.266Z,18.38
2022-12-20T15:24:22.686Z,18.36
2022-12-20T15:26:51.379Z,18.31
2022-12-20T15:29:22.423Z,18.30
2022-12-20T15:31:52.663Z,18.25
2022-12-20T15:34:39.129Z,18.21
2022-12-20T15:37:09.318Z,18.17
2022-12-20T15:39:42.825Z,18.14
2022-12-20T15:42:19.733Z,18.12
2022-12-20T15:44:48.440Z,18.11
2022-12-20T15:47:17.871Z,18.08
2022-12-20T15:49:50.174Z,18.05
2022-12-20T15:52:24.542Z,18.04
2022-12-20T15:54:52.980Z,18.02
2022-12-20T15:57:21.839Z,18.01
2022-12-20T16:00:02.217Z,17.98
2022-12-20T16:02:32.002Z,17.98
2022-12-20T16:05:00.719Z,17.99
2022-12-20T16:07:29.237Z,18.00
2022-12-20T16:09:57.597Z,18.00
2022-12-20T16:12:27.524Z,17.99
2022-12-20T16:14:56.620Z,17.99
2022-12-20T16:17:25.184Z,17.98
2022-12-20T16:19:53.582Z,17.99
2022-12-20T16:22:24.905Z,17.96
2022-12-20T16:24:53.346Z,17.95
2022-12-20T16:27:22.039Z,17.93
2022-12-20T16:29:50.344Z,17.90
2022-12-20T16:32:22.516Z,17.88
2022-12-20T16:34:51.967Z,17.85
2022-12-20T16:37:20.702Z,17.82
2022-12-20T16:39:49.714Z,17.80
2022-12-20T16:42:23.644Z,17.81
2022-12-20T16:44:55.629Z,17.84
2022-12-20T16:47:24.235Z,17.87
2022-12-20T16:49:53.760Z,17.89
2022-12-20T16:52:23.712Z,17.91
2022-12-20T16:54:52.552Z,17.92
2022-12-20T16:57:22.294Z,17.94
2022-12-20T16:59:50.966Z,17.93
2022-12-20T17:02:39.531Z,17.95
2022-12-20T17:05:08.499Z,17.96
2022-12-20T17:07:41.223Z,17.97
2022-12-20T17:10:11.269Z,17.97
2022-12-20T17:12:39.632Z,17.98
2022-12-20T17:15:12.228Z,17.99
2022-12-20T17:17:40.604Z,17.99
2022-12-20T17:20:09.476Z,17.99
2022-12-20T17:25:32.003Z,17.93
2022-12-20T17:28:00.299Z,17.91
2022-12-20T17:30:28.792Z,17.90
2022-12-20T17:32:57.130Z,17.90
2022-12-20T17:35:31.865Z,17.89
2022-12-20T17:38:01.427Z,17.91
2022-12-20T17:40:30.180Z,17.92
2022-12-20T17:42:58.499Z,17.92
2022-12-20T17:45:33.811Z,17.92
2022-12-20T17:48:02.251Z,17.90
2022-12-20T17:50:30.573Z,17.89
2022-12-20T17:52:58.916Z,17.88
2022-12-20T17:55:29.424Z,17.88
2022-12-20T17:57:57.777Z,17.87
2022-12-20T18:00:39.247Z,17.87
2022-12-20T18:03:08.965Z,17.87
2022-12-20T18:05:41.822Z,17.84
2022-12-20T18:08:10.155Z,17.85
2022-12-20T18:10:38.433Z,17.84
2022-12-20T18:13:06.715Z,17.83
2022-12-20T18:15:35.020Z,17.81
2022-12-20T18:18:03.397Z,17.81
2022-12-20T18:20:31.723Z,17.79
2022-12-20T18:23:00.022Z,17.77
2022-12-20T18:25:28.347Z,17.76
2022-12-20T18:27:57.220Z,17.74
2022-12-20T18:30:25.514Z,17.72
2022-12-20T18:32:53.894Z,17.70
2022-12-20T18:35:22.184Z,17.70
2022-12-20T18:37:50.456Z,17.68
2022-12-20T18:40:18.952Z,17.67
2022-12-20T18:42:47.214Z,17.64
2022-12-20T18:45:15.521Z,17.61
2022-12-20T18:47:43.889Z,17.60
2022-12-20T18:50:14.217Z,17.59
2022-12-20T18:52:47.117Z,17.57
2022-12-20T18:55:16.580Z,17.55
2022-12-20T18:57:44.962Z,17.52
2022-12-20T19:00:13.948Z,17.50
2022-12-20T19:02:42.445Z,17.47
2022-12-20T19:05:10.962Z,17.45
2022-12-20T19:07:39.292Z,17.42
2022-12-20T19:10:08.227Z,17.41
2022-12-20T19:12:36.516Z,17.39
2022-12-20T19:15:04.986Z,17.38
2022-12-20T19:17:33.314Z,17.35
2022-12-20T19:20:01.579Z,17.35
2022-12-20T19:22:29.884Z,17.33
2022-12-20T19:24:58.850Z,17.32
2022-12-20T19:27:27.153Z,17.30
2022-12-20T19:29:55.604Z,17.29
2022-12-20T19:32:26.008Z,17.28
2022-12-20T19:34:54.310Z,17.27
2022-12-20T19:37:22.644Z,17.24
2022-12-20T19:39:50.944Z,17.21
2022-12-20T19:42:24.345Z,17.18
2022-12-20T19:44:53.893Z,17.15
2022-12-20T19:47:22.561Z,17.11
2022-12-20T19:49:51.181Z,17.09
2022-12-20T19:52:24.790Z,17.07
2022-12-20T19:54:56.575Z,17.05
2022-12-20T19:57:25.196Z,17.03
2022-12-20T19:59:56.041Z,16.99
2022-12-20T20:02:24.781Z,16.96
2022-12-20T20:04:53.330Z,16.93
2022-12-20T20:07:21.701Z,16.90
2022-12-20T20:09:50.266Z,16.86
2022-12-20T20:12:18.828Z,16.83
2022-12-20T20:14:47.160Z,16.78
2022-12-20T20:17:15.511Z,16.76
2022-12-20T20:19:43.792Z,16.74
2022-12-20T20:22:12.489Z,16.72
2022-12-20T20:24:42.781Z,16.69
2022-12-20T20:27:11.122Z,16.68
2022-12-20T20:29:39.513Z,16.66
2022-12-20T20:32:08.620Z,16.65
2022-12-20T20:34:37.114Z,16.63
2022-12-20T20:37:05.456Z,16.63
2022-12-20T20:39:34.023Z,16.62
2022-12-20T20:42:02.308Z,16.61
2022-12-20T20:44:30.609Z,16.60
2022-12-20T20:46:59.044Z,16.58
2022-12-20T20:49:27.387Z,16.56
2022-12-20T20:51:55.691Z,16.52
2022-12-20T20:54:24.004Z,16.51
2022-12-20T20:56:52.319Z,16.50
2022-12-20T20:59:22.582Z,16.48
2022-12-20T21:01:51.056Z,16.47
2022-12-20T21:04:19.408Z,16.45
2022-12-20T21:06:48.223Z,16.45
2022-12-20T21:09:16.669Z,16.44
2022-12-20T21:11:45.725Z,16.44
2022-12-20T21:14:14.357Z,16.44
2022-12-20T21:16:42.791Z,16.43
2022-12-20T21:19:12.362Z,16.41
2022-12-20T21:21:41.021Z,16.40
2022-12-20T21:24:09.712Z,16.39
2022-12-20T21:26:38.860Z,16.39
2022-12-20T21:29:07.225Z,16.39
2022-12-20T21:31:35.737Z,16.42
2022-12-20T21:34:04.734Z,16.45
2022-12-20T21:36:33.094Z,16.49
2022-12-20T21:39:01.460Z,16.52
2022-12-20T21:41:30.305Z,16.56
2022-12-20T21:44:00.406Z,16.58
2022-12-20T21:46:30.580Z,16.61
2022-12-20T21:49:01.976Z,16.63
2022-12-20T21:51:31.604Z,16.64
2022-12-20T21:54:02.049Z,16.65
2022-12-20T21:56:33.654Z,16.64
2022-12-20T21:59:03.287Z,16.63
2022-12-20T22:01:32.324Z,16.60
2022-12-20T22:04:03.654Z,16.60
2022-12-20T22:06:32.428Z,16.58
2022-12-20T22:09:02.204Z,16.55
2022-12-20T22:11:30.611Z,16.56
2022-12-20T22:13:58.982Z,16.57
2022-12-20T22:16:33.163Z,16.56
2022-12-20T22:19:02.522Z,16.57
2022-12-20T22:21:32.981Z,16.55
2022-12-20T22:24:02.933Z,16.52
2022-12-20T22:26:34.129Z,16.49
2022-12-20T22:29:05.541Z,16.48
2022-12-20T22:31:34.327Z,16.47
2022-12-20T22:34:03.041Z,16.45
2022-12-20T22:36:31.472Z,16.45
2022-12-20T22:39:00.114Z,16.44
2022-12-20T22:41:35.610Z,16.44
2022-12-20T22:44:04.802Z,16.43
2022-12-20T22:46:33.784Z,16.43
2022-12-20T22:49:02.375Z,16.43
2022-12-20T22:51:34.116Z,16.42
2022-12-20T22:54:02.433Z,16.41
2022-12-20T22:56:30.798Z,16.39
2022-12-20T22:58:59.253Z,16.36
2022-12-20T23:01:27.906Z,16.34
2022-12-20T23:03:56.432Z,16.33
2022-12-20T23:06:24.824Z,16.32
2022-12-20T23:08:53.133Z,16.30
2022-12-20T23:11:43.445Z,16.30
2022-12-20T23:14:38.551Z,16.30
2022-12-20T23:17:07.999Z,16.30
2022-12-20T23:19:54.929Z,16.31
2022-12-20T23:22:41.171Z,16.32
2022-12-20T23:25:12.832Z,16.33
2022-12-20T23:27:43.209Z,16.32
2022-12-20T23:30:15.089Z,16.33
2022-12-20T23:32:46.636Z,16.30
2022-12-20T23:35:17.421Z,16.31
2022-12-20T23:37:46.852Z,16.28
2022-12-20T23:40:17.347Z,16.29
2022-12-20T23:42:46.127Z,16.30
2022-12-20T23:45:14.628Z,16.30
2022-12-20T23:47:42.977Z,16.30
2022-12-20T23:50:11.750Z,16.31
2022-12-20T23:52:40.185Z,16.32
2022-12-20T23:55:08.828Z,16.32
2022-12-20T23:57:37.169Z,16.33
